sensor_id;sensor_type;location;lat;lon;timestamp;pressure;altitude;pressure_sealevel;temperature;humidity
43312;BME280;30041;48.300;16.352;2023-12-14T00:01:55;98466.50;;;21.61;nan
43312;BME280;30041;48.300;16.352;2023-12-14T00:04:20;98470.00;;;21.61;nan
43312;BME280;30041;48.300;16.352;2023-12-14T00:06:46;98472.69;;;21.61;nan
43312;BME280;30041;48.300;16.352;2023-12-14T00:09:11;98474.34;;;21.62;nan
43312;BME280;30041;48.300;16.352;2023-12-14T00:11:39;98476.22;;;21.62;nan
43312;BME280;30041;48.300;16.352;2023-12-14T00:14:05;98479.19;;;21.60;nan
43312;BME280;30041;48.300;16.352;2023-12-14T00:16:31;98482.69;;;21.61;nan
43312;BME280;30041;48.300;16.352;2023-12-14T00:18:56;98482.69;;;21.61;nan
43312;BME280;30041;48.300;16.352;2023-12-14T00:21:22;98487.53;;;21.59;nan
43312;BME280;30041;48.300;16.352;2023-12-14T00:23:47;98487.81;;;21.57;nan
43312;BME280;30041;48.300;16.352;2023-12-14T00:26:12;98493.75;;;21.59;nan
43312;BME280;30041;48.300;16.352;2023-12-14T00:28:38;98486.72;;;21.58;nan
43312;BME280;30041;48.300;16.352;2023-12-14T00:31:03;98491.31;;;21.58;nan
43312;BME280;30041;48.300;16.352;2023-12-14T00:33:29;98505.59;;;21.58;nan
43312;BME280;30041;48.300;16.352;2023-12-14T00:35:54;98509.38;;;21.57;nan
43312;BME280;30041;48.300;16.352;2023-12-14T00:38:20;98508.84;;;21.55;nan
43312;BME280;30041;48.300;16.352;2023-12-14T00:40:45;98507.75;;;21.56;nan
43312;BME280;30041;48.300;16.352;2023-12-14T00:43:11;98518.53;;;21.56;nan
43312;BME280;30041;48.300;16.352;2023-12-14T00:45:36;98522.03;;;21.56;nan
43312;BME280;30041;48.300;16.352;2023-12-14T00:48:01;98535.00;;;21.54;nan
43312;BME280;30041;48.300;16.352;2023-12-14T00:50:27;98533.09;;;21.55;nan
43312;BME280;30041;48.300;16.352;2023-12-14T00:52:52;98530.66;;;21.53;nan
43312;BME280;30041;48.300;16.352;2023-12-14T00:55:18;98544.69;;;21.55;nan
43312;BME280;30041;48.300;16.352;2023-12-14T00:57:43;98543.88;;;21.55;nan
43312;BME280;30041;48.300;16.352;2023-12-14T01:00:09;98546.56;;;21.55;nan
43312;BME280;30041;48.300;16.352;2023-12-14T01:02:35;98550.06;;;21.55;nan
43312;BME280;30041;48.300;16.352;2023-12-14T01:05:00;98550.06;;;21.55;nan
43312;BME280;30041;48.300;16.352;2023-12-14T01:07:26;98551.41;;;21.53;nan
43312;BME280;30041;48.300;16.352;2023-12-14T01:09:51;98551.66;;;21.51;nan
43312;BME280;30041;48.300;16.352;2023-12-14T01:12:16;98561.41;;;21.52;nan
43312;BME280;30041;48.300;16.352;2023-12-14T01:14:42;98564.09;;;21.52;nan
43312;BME280;30041;48.300;16.352;2023-12-14T01:17:07;98565.97;;;21.52;nan
43312;BME280;30041;48.300;16.352;2023-12-14T01:19:33;98565.16;;;21.51;nan
43312;BME280;30041;48.300;16.352;2023-12-14T01:21:58;98568.94;;;21.50;nan
43312;BME280;30041;48.300;16.352;2023-12-14T01:24:24;98570.00;;;21.49;nan
43312;BME280;30041;48.300;16.352;2023-12-14T01:26:49;98565.41;;;21.50;nan
43312;BME280;30041;48.300;16.352;2023-12-14T01:29:15;98570.28;;;21.48;nan
43312;BME280;30041;48.300;16.352;2023-12-14T01:31:40;98571.63;;;21.50;nan
43312;BME280;30041;48.300;16.352;2023-12-14T01:34:05;98574.31;;;21.50;nan
43312;BME280;30041;48.300;16.352;2023-12-14T01:36:31;98572.69;;;21.49;nan
43312;BME280;30041;48.300;16.352;2023-12-14T01:38:56;98575.94;;;21.51;nan
43312;BME280;30041;48.300;16.352;2023-12-14T01:41:22;98579.16;;;21.48;nan
43312;BME280;30041;48.300;16.352;2023-12-14T01:43:47;98568.63;;;21.47;nan
43312;BME280;30041;48.300;16.352;2023-12-14T01:46:13;98564.88;;;21.48;nan
43312;BME280;30041;48.300;16.352;2023-12-14T01:48:38;98571.09;;;21.48;nan
43312;BME280;30041;48.300;16.352;2023-12-14T01:51:04;98571.88;;;21.49;nan
43312;BME280;30041;48.300;16.352;2023-12-14T01:53:29;98575.91;;;21.46;nan
43312;BME280;30041;48.300;16.352;2023-12-14T01:55:55;98574.03;;;21.47;nan
43312;BME280;30041;48.300;16.352;2023-12-14T01:58:20;98578.63;;;21.46;nan
43312;BME280;30041;48.300;16.352;2023-12-14T02:03:16;98578.38;;;21.48;nan
43312;BME280;30041;48.300;16.352;2023-12-14T02:05:42;98582.38;;;21.45;nan
43312;BME280;30041;48.300;16.352;2023-12-14T02:08:07;98579.41;;;21.47;nan
43312;BME280;30041;48.300;16.352;2023-12-14T02:10:33;98579.41;;;21.47;nan
43312;BME280;30041;48.300;16.352;2023-12-14T02:12:58;98581.56;;;21.45;nan
43312;BME280;30041;48.300;16.352;2023-12-14T02:15:26;98579.69;;;21.45;nan
43312;BME280;30041;48.300;16.352;2023-12-14T02:17:51;98586.97;;;21.45;nan
43312;BME280;30041;48.300;16.352;2023-12-14T02:20:17;98588.03;;;21.44;nan
43312;BME280;30041;48.300;16.352;2023-12-14T02:22:55;98594.00;;;21.46;nan
43312;BME280;30041;48.300;16.352;2023-12-14T02:25:21;98598.81;;;21.44;nan
43312;BME280;30041;48.300;16.352;2023-12-14T02:27:48;98612.31;;;21.44;nan
43312;BME280;30041;48.300;16.352;2023-12-14T02:30:14;98606.91;;;21.44;nan
43312;BME280;30041;48.300;16.352;2023-12-14T02:32:40;98612.31;;;21.44;nan
43312;BME280;30041;48.300;16.352;2023-12-14T02:35:06;98620.38;;;21.44;nan
43312;BME280;30041;48.300;16.352;2023-12-14T02:37:32;98624.16;;;21.43;nan
43312;BME280;30041;48.300;16.352;2023-12-14T02:39:59;98630.63;;;21.42;nan
43312;BME280;30041;48.300;16.352;2023-12-14T02:42:24;98634.38;;;21.41;nan
43312;BME280;30041;48.300;16.352;2023-12-14T02:44:50;98631.09;;;21.39;nan
43312;BME280;30041;48.300;16.352;2023-12-14T02:47:16;98632.72;;;21.40;nan
43312;BME280;30041;48.300;16.352;2023-12-14T02:49:42;98631.44;;;21.42;nan
43312;BME280;30041;48.300;16.352;2023-12-14T02:52:07;98634.38;;;21.41;nan
43312;BME280;30041;48.300;16.352;2023-12-14T02:54:33;98625.69;;;21.39;nan
43312;BME280;30041;48.300;16.352;2023-12-14T02:56:58;98630.84;;;21.40;nan
43312;BME280;30041;48.300;16.352;2023-12-14T02:59:24;98628.97;;;21.41;nan
43312;BME280;30041;48.300;16.352;2023-12-14T03:01:49;98639.75;;;21.41;nan
43312;BME280;30041;48.300;16.352;2023-12-14T03:04:14;98648.91;;;21.40;nan
43312;BME280;30041;48.300;16.352;2023-12-14T03:06:40;98648.91;;;21.40;nan
43312;BME280;30041;48.300;16.352;2023-12-14T03:09:05;98657.25;;;21.38;nan
43312;BME280;30041;48.300;16.352;2023-12-14T03:11:31;98657.00;;;21.40;nan
43312;BME280;30041;48.300;16.352;2023-12-14T03:13:56;98655.34;;;21.39;nan
43312;BME280;30041;48.300;16.352;2023-12-14T03:16:22;98661.81;;;21.38;nan
43312;BME280;30041;48.300;16.352;2023-12-14T03:18:47;98657.25;;;21.38;nan
43312;BME280;30041;48.300;16.352;2023-12-14T03:21:13;98658.03;;;21.39;nan
43312;BME280;30041;48.300;16.352;2023-12-14T03:23:38;98667.22;;;21.38;nan
43312;BME280;30041;48.300;16.352;2023-12-14T03:26:03;98667.22;;;21.38;nan
43312;BME280;30041;48.300;16.352;2023-12-14T03:28:29;98666.97;;;21.39;nan
43312;BME280;30041;48.300;16.352;2023-12-14T03:30:54;98675.56;;;21.36;nan
43312;BME280;30041;48.300;16.352;2023-12-14T03:33:20;98673.66;;;21.36;nan
43312;BME280;30041;48.300;16.352;2023-12-14T03:35:45;98684.44;;;21.36;nan
43312;BME280;30041;48.300;16.352;2023-12-14T03:38:11;98681.75;;;21.36;nan
43312;BME280;30041;48.300;16.352;2023-12-14T03:40:36;98680.13;;;21.35;nan
43312;BME280;30041;48.300;16.352;2023-12-14T03:43:02;98678.53;;;21.34;nan
43312;BME280;30041;48.300;16.352;2023-12-14T03:45:27;98687.66;;;21.33;nan
43312;BME280;30041;48.300;16.352;2023-12-14T03:47:52;98687.66;;;21.33;nan
43312;BME280;30041;48.300;16.352;2023-12-14T03:50:18;98693.06;;;21.33;nan
43312;BME280;30041;48.300;16.352;2023-12-14T03:52:43;98706.28;;;21.35;nan
43312;BME280;30041;48.300;16.352;2023-12-14T03:55:09;98704.66;;;21.34;nan
43312;BME280;30041;48.300;16.352;2023-12-14T03:57:34;98711.69;;;21.35;nan
43312;BME280;30041;48.300;16.352;2023-12-14T04:00:00;98704.66;;;21.34;nan
43312;BME280;30041;48.300;16.352;2023-12-14T04:02:25;98719.22;;;21.33;nan
43312;BME280;30041;48.300;16.352;2023-12-14T04:04:51;98711.38;;;21.31;nan
43312;BME280;30041;48.300;16.352;2023-12-14T04:07:16;98712.19;;;21.32;nan
43312;BME280;30041;48.300;16.352;2023-12-14T04:09:43;98714.88;;;21.32;nan
43312;BME280;30041;48.300;16.352;2023-12-14T04:12:11;98722.16;;;21.31;nan
43312;BME280;30041;48.300;16.352;2023-12-14T04:14:36;98720.53;;;21.30;nan
43312;BME280;30041;48.300;16.352;2023-12-14T04:17:02;98722.97;;;21.32;nan
43312;BME280;30041;48.300;16.352;2023-12-14T04:19:27;98724.03;;;21.31;nan
43312;BME280;30041;48.300;16.352;2023-12-14T04:21:53;98733.19;;;21.30;nan
43312;BME280;30041;48.300;16.352;2023-12-14T04:24:18;98736.72;;;21.30;nan
43312;BME280;30041;48.300;16.352;2023-12-14T04:26:44;98740.47;;;21.29;nan
43312;BME280;30041;48.300;16.352;2023-12-14T04:29:10;98739.66;;;21.29;nan
43312;BME280;30041;48.300;16.352;2023-12-14T04:31:35;98741.25;;;21.30;nan
43312;BME280;30041;48.300;16.352;2023-12-14T04:34:01;98753.94;;;21.29;nan
43312;BME280;30041;48.300;16.352;2023-12-14T04:36:26;98754.75;;;21.30;nan
43312;BME280;30041;48.300;16.352;2023-12-14T04:38:52;98758.28;;;21.30;nan
43312;BME280;30041;48.300;16.352;2023-12-14T04:41:17;98756.38;;;21.31;nan
43312;BME280;30041;48.300;16.352;2023-12-14T04:43:43;98763.66;;;21.30;nan
43312;BME280;30041;48.300;16.352;2023-12-14T04:46:08;98760.13;;;21.30;nan
43312;BME280;30041;48.300;16.352;2023-12-14T04:48:34;98773.59;;;21.30;nan
43312;BME280;30041;48.300;16.352;2023-12-14T04:50:59;98769.84;;;21.31;nan
43312;BME280;30041;48.300;16.352;2023-12-14T04:53:25;98763.38;;;21.32;nan
43312;BME280;30041;48.300;16.352;2023-12-14T04:55:50;98767.72;;;21.33;nan
43312;BME280;30041;48.300;16.352;2023-12-14T04:58:15;98772.03;;;21.34;nan
43312;BME280;30041;48.300;16.352;2023-12-14T05:00:41;98779.31;;;21.33;nan
43312;BME280;30041;48.300;16.352;2023-12-14T05:03:06;98766.38;;;21.35;nan
43312;BME280;30041;48.300;16.352;2023-12-14T05:05:32;98773.66;;;21.35;nan
43312;BME280;30041;48.300;16.352;2023-12-14T05:07:57;98770.97;;;21.35;nan
43312;BME280;30041;48.300;16.352;2023-12-14T05:10:23;98773.38;;;21.36;nan
43312;BME280;30041;48.300;16.352;2023-12-14T05:12:48;98779.06;;;21.35;nan
43312;BME280;30041;48.300;16.352;2023-12-14T05:15:14;98784.16;;;21.36;nan
43312;BME280;30041;48.300;16.352;2023-12-14T05:17:39;98782.31;;;21.37;nan
43312;BME280;30041;48.300;16.352;2023-12-14T05:20:08;98782.03;;;21.39;nan
43312;BME280;30041;48.300;16.352;2023-12-14T05:22:34;98776.66;;;21.39;nan
43312;BME280;30041;48.300;16.352;2023-12-14T05:24:59;98788.50;;;21.38;nan
43312;BME280;30041;48.300;16.352;2023-12-14T05:27:25;98789.06;;;21.40;nan
43312;BME280;30041;48.300;16.352;2023-12-14T05:29:50;98788.50;;;21.38;nan
43312;BME280;30041;48.300;16.352;2023-12-14T05:32:16;98787.41;;;21.39;nan
43312;BME280;30041;48.300;16.352;2023-12-14T05:34:41;98797.16;;;21.40;nan
43312;BME280;30041;48.300;16.352;2023-12-14T05:37:07;98804.19;;;21.41;nan
43312;BME280;30041;48.300;16.352;2023-12-14T05:39:32;98779.09;;;21.40;nan
43312;BME280;30041;48.300;16.352;2023-12-14T05:41:57;98786.16;;;21.41;nan
43312;BME280;30041;48.300;16.352;2023-12-14T05:44:23;98780.97;;;21.40;nan
43312;BME280;30041;48.300;16.352;2023-12-14T05:46:49;98796.09;;;21.41;nan
43312;BME280;30041;48.300;16.352;2023-12-14T05:49:14;98789.88;;;21.40;nan
43312;BME280;30041;48.300;16.352;2023-12-14T05:51:40;98791.75;;;21.40;nan
43312;BME280;30041;48.300;16.352;2023-12-14T05:54:05;98816.03;;;21.40;nan
43312;BME280;30041;48.300;16.352;2023-12-14T05:56:31;98802.53;;;21.40;nan
43312;BME280;30041;48.300;16.352;2023-12-14T05:58:56;98813.09;;;21.41;nan
43312;BME280;30041;48.300;16.352;2023-12-14T06:01:23;98818.50;;;21.41;nan
43312;BME280;30041;48.300;16.352;2023-12-14T06:03:49;98820.13;;;21.42;nan
43312;BME280;30041;48.300;16.352;2023-12-14T06:06:15;98830.09;;;21.42;nan
43312;BME280;30041;48.300;16.352;2023-12-14T06:08:41;98829.00;;;21.43;nan
43312;BME280;30041;48.300;16.352;2023-12-14T06:11:07;98827.13;;;21.43;nan
43312;BME280;30041;48.300;16.352;2023-12-14T06:13:33;98831.44;;;21.44;nan
43312;BME280;30041;48.300;16.352;2023-12-14T06:15:59;98829.00;;;21.43;nan
43312;BME280;30041;48.300;16.352;2023-12-14T06:18:25;98837.66;;;21.45;nan
43312;BME280;30041;48.300;16.352;2023-12-14T06:20:50;98841.44;;;21.44;nan
43312;BME280;30041;48.300;16.352;2023-12-14T06:23:16;98858.66;;;21.43;nan
43312;BME280;30041;48.300;16.352;2023-12-14T06:25:42;98851.13;;;21.45;nan
43312;BME280;30041;48.300;16.352;2023-12-14T06:28:07;98857.59;;;21.44;nan
43312;BME280;30041;48.300;16.352;2023-12-14T06:30:33;98863.25;;;21.42;nan
43312;BME280;30041;48.300;16.352;2023-12-14T06:32:59;98871.09;;;21.44;nan
43312;BME280;30041;48.300;16.352;2023-12-14T06:35:24;98875.09;;;21.41;nan
43312;BME280;30041;48.300;16.352;2023-12-14T06:37:50;98881.88;;;21.44;nan
43312;BME280;30041;48.300;16.352;2023-12-14T06:40:15;98881.88;;;21.44;nan
43312;BME280;30041;48.300;16.352;2023-12-14T06:42:41;98890.50;;;21.46;nan
43312;BME280;30041;48.300;16.352;2023-12-14T06:45:07;98893.44;;;21.44;nan
43312;BME280;30041;48.300;16.352;2023-12-14T06:47:33;98899.09;;;21.43;nan
43312;BME280;30041;48.300;16.352;2023-12-14T06:49:58;98897.19;;;21.43;nan
43312;BME280;30041;48.300;16.352;2023-12-14T06:52:24;98907.19;;;21.43;nan
43312;BME280;30041;48.300;16.352;2023-12-14T06:54:49;98912.56;;;21.43;nan
43312;BME280;30041;48.300;16.352;2023-12-14T06:57:15;98906.94;;;21.44;nan
43312;BME280;30041;48.300;16.352;2023-12-14T06:59:40;98914.22;;;21.44;nan
43312;BME280;30041;48.300;16.352;2023-12-14T07:02:06;98912.56;;;21.43;nan
43312;BME280;30041;48.300;16.352;2023-12-14T07:04:32;98915.03;;;21.44;nan
43312;BME280;30041;48.300;16.352;2023-12-14T07:06:58;98921.22;;;21.45;nan
43312;BME280;30041;48.300;16.352;2023-12-14T07:09:23;98921.22;;;21.45;nan
43312;BME280;30041;48.300;16.352;2023-12-14T07:11:49;98924.72;;;21.45;nan
43312;BME280;30041;48.300;16.352;2023-12-14T07:14:14;98933.66;;;21.46;nan
43312;BME280;30041;48.300;16.352;2023-12-14T07:16:41;98935.50;;;21.45;nan
43312;BME280;30041;48.300;16.352;2023-12-14T07:19:06;98940.66;;;21.47;nan
43312;BME280;30041;48.300;16.352;2023-12-14T07:21:32;98947.94;;;21.46;nan
43312;BME280;30041;48.300;16.352;2023-12-14T07:23:57;98954.38;;;21.45;nan
43312;BME280;30041;48.300;16.352;2023-12-14T07:26:23;98960.59;;;21.46;nan
43312;BME280;30041;48.300;16.352;2023-12-14T07:28:48;98951.44;;;21.47;nan
43312;BME280;30041;48.300;16.352;2023-12-14T07:31:14;98958.00;;;21.56;nan
43312;BME280;30041;48.300;16.352;2023-12-14T07:33:39;98962.34;;;21.57;nan
43312;BME280;30041;48.300;16.352;2023-12-14T07:36:05;98976.66;;;21.63;nan
43312;BME280;30041;48.300;16.352;2023-12-14T07:38:31;98980.25;;;21.68;nan
43312;BME280;30041;48.300;16.352;2023-12-14T07:40:56;98983.44;;;21.65;nan
43312;BME280;30041;48.300;16.352;2023-12-14T07:43:22;98979.59;;;21.61;nan
43312;BME280;30041;48.300;16.352;2023-12-14T07:45:47;98985.53;;;21.58;nan
43312;BME280;30041;48.300;16.352;2023-12-14T07:48:13;98990.66;;;21.60;nan
43312;BME280;30041;48.300;16.352;2023-12-14T07:50:38;98997.69;;;21.61;nan
43312;BME280;30041;48.300;16.352;2023-12-14T07:53:04;98994.97;;;21.61;nan
43312;BME280;30041;48.300;16.352;2023-12-14T07:55:30;99002.25;;;21.60;nan
43312;BME280;30041;48.300;16.352;2023-12-14T07:57:55;98999.88;;;21.64;nan
43312;BME280;30041;48.300;16.352;2023-12-14T08:00:21;99012.66;;;21.73;nan
43312;BME280;30041;48.300;16.352;2023-12-14T08:02:47;99016.50;;;21.83;nan
43312;BME280;30041;48.300;16.352;2023-12-14T08:05:12;99016.56;;;21.88;nan
43312;BME280;30041;48.300;16.352;2023-12-14T08:07:38;99012.28;;;21.92;nan
43312;BME280;30041;48.300;16.352;2023-12-14T08:10:04;99025.47;;;21.88;nan
43312;BME280;30041;48.300;16.352;2023-12-14T08:12:29;99030.56;;;21.85;nan
43312;BME280;30041;48.300;16.352;2023-12-14T08:14:55;99031.09;;;21.82;nan
43312;BME280;30041;48.300;16.352;2023-12-14T08:17:21;99036.47;;;21.82;nan
43312;BME280;30041;48.300;16.352;2023-12-14T08:19:46;99039.19;;;21.82;nan
43312;BME280;30041;48.300;16.352;2023-12-14T08:22:12;99040.34;;;21.91;nan
43312;BME280;30041;48.300;16.352;2023-12-14T08:24:40;99040.38;;;21.96;nan
43312;BME280;30041;48.300;16.352;2023-12-14T08:27:06;99061.44;;;21.99;nan
43312;BME280;30041;48.300;16.352;2023-12-14T08:29:31;99060.84;;;21.92;nan
43312;BME280;30041;48.300;16.352;2023-12-14T08:31:57;99057.59;;;21.90;nan
43312;BME280;30041;48.300;16.352;2023-12-14T08:34:25;99071.63;;;21.92;nan
43312;BME280;30041;48.300;16.352;2023-12-14T08:36:51;99069.50;;;21.94;nan
43312;BME280;30041;48.300;16.352;2023-12-14T08:39:17;99077.59;;;21.94;nan
43312;BME280;30041;48.300;16.352;2023-12-14T08:41:42;99080.53;;;21.92;nan
43312;BME280;30041;48.300;16.352;2023-12-14T08:44:08;99089.47;;;21.93;nan
43312;BME280;30041;48.300;16.352;2023-12-14T08:46:44;99089.19;;;21.94;nan
43312;BME280;30041;48.300;16.352;2023-12-14T08:49:10;99092.16;;;21.93;nan
43312;BME280;30041;48.300;16.352;2023-12-14T08:51:36;99091.91;;;21.94;nan
43312;BME280;30041;48.300;16.352;2023-12-14T08:54:02;99102.19;;;21.97;nan
43312;BME280;30041;48.300;16.352;2023-12-14T08:56:27;99107.31;;;21.99;nan
43312;BME280;30041;48.300;16.352;2023-12-14T08:58:53;99108.41;;;21.98;nan
43312;BME280;30041;48.300;16.352;2023-12-14T09:01:22;99105.47;;;22.00;nan
43312;BME280;30041;48.300;16.352;2023-12-14T09:03:48;99118.09;;;21.99;nan
43312;BME280;30041;48.300;16.352;2023-12-14T09:06:13;99120.00;;;21.98;nan
43312;BME280;30041;48.300;16.352;2023-12-14T09:08:39;99121.88;;;21.98;nan
43312;BME280;30041;48.300;16.352;2023-12-14T09:11:04;99129.47;;;22.01;nan
43312;BME280;30041;48.300;16.352;2023-12-14T09:13:30;99127.84;;;22.00;nan
43312;BME280;30041;48.300;16.352;2023-12-14T09:15:55;99119.75;;;22.00;nan
43312;BME280;30041;48.300;16.352;2023-12-14T09:18:21;99129.75;;;22.00;nan
43312;BME280;30041;48.300;16.352;2023-12-14T09:20:46;99136.50;;;22.02;nan
43312;BME280;30041;48.300;16.352;2023-12-14T09:23:12;99134.25;;;21.94;nan
43312;BME280;30041;48.300;16.352;2023-12-14T09:25:37;99141.28;;;21.95;nan
43312;BME280;30041;48.300;16.352;2023-12-14T09:28:03;99138.06;;;21.98;nan
43312;BME280;30041;48.300;16.352;2023-12-14T09:30:28;99142.16;;;22.01;nan
43312;BME280;30041;48.300;16.352;2023-12-14T09:32:54;99142.19;;;22.06;nan
43312;BME280;30041;48.300;16.352;2023-12-14T09:35:19;99144.09;;;22.05;nan
43312;BME280;30041;48.300;16.352;2023-12-14T09:37:45;99150.03;;;22.07;nan
43312;BME280;30041;48.300;16.352;2023-12-14T09:40:10;99143.53;;;22.03;nan
43312;BME280;30041;48.300;16.352;2023-12-14T09:42:37;99153.75;;;22.01;nan
43312;BME280;30041;48.300;16.352;2023-12-14T09:45:04;99163.50;;;22.02;nan
43312;BME280;30041;48.300;16.352;2023-12-14T09:47:29;99161.34;;;22.04;nan
43312;BME280;30041;48.300;16.352;2023-12-14T09:49:55;99165.56;;;21.95;nan
43312;BME280;30041;48.300;16.352;2023-12-14T09:52:21;99170.47;;;21.98;nan
43312;BME280;30041;48.300;16.352;2023-12-14T09:54:46;99165.63;;;22.00;nan
43312;BME280;30041;48.300;16.352;2023-12-14T09:57:12;99173.22;;;22.03;nan
43312;BME280;30041;48.300;16.352;2023-12-14T09:59:37;99188.59;;;22.03;nan
43312;BME280;30041;48.300;16.352;2023-12-14T10:02:12;99185.38;;;22.06;nan
43312;BME280;30041;48.300;16.352;2023-12-14T10:04:39;99190.78;;;22.06;nan
43312;BME280;30041;48.300;16.352;2023-12-14T10:07:04;99191.84;;;22.05;nan
43312;BME280;30041;48.300;16.352;2023-12-14T10:09:29;99194.56;;;22.05;nan
43312;BME280;30041;48.300;16.352;2023-12-14T10:12:03;99196.16;;;22.06;nan
43312;BME280;30041;48.300;16.352;2023-12-14T10:14:28;99200.75;;;22.05;nan
43312;BME280;30041;48.300;16.352;2023-12-14T10:16:55;99203.22;;;22.07;nan
43312;BME280;30041;48.300;16.352;2023-12-14T10:19:20;99199.13;;;22.04;nan
43312;BME280;30041;48.300;16.352;2023-12-14T10:21:47;99202.06;;;22.03;nan
43312;BME280;30041;48.300;16.352;2023-12-14T10:24:14;99199.13;;;22.04;nan
43312;BME280;30041;48.300;16.352;2023-12-14T10:26:39;99199.94;;;22.05;nan
43312;BME280;30041;48.300;16.352;2023-12-14T10:29:06;99211.56;;;22.05;nan
43312;BME280;30041;48.300;16.352;2023-12-14T10:31:32;99216.94;;;22.05;nan
43312;BME280;30041;48.300;16.352;2023-12-14T10:33:58;99215.91;;;22.06;nan
43312;BME280;30041;48.300;16.352;2023-12-14T10:36:25;99221.53;;;22.05;nan
43312;BME280;30041;48.300;16.352;2023-12-14T10:38:59;99217.75;;;22.06;nan
43312;BME280;30041;48.300;16.352;2023-12-14T10:41:25;99225.31;;;22.04;nan
43312;BME280;30041;48.300;16.352;2023-12-14T10:43:54;99222.34;;;22.05;nan
43312;BME280;30041;48.300;16.352;2023-12-14T10:46:20;99234.09;;;22.16;nan
43312;BME280;30041;48.300;16.352;2023-12-14T10:48:47;99234.28;;;22.09;nan
43312;BME280;30041;48.300;16.352;2023-12-14T10:51:14;99239.44;;;22.11;nan
43312;BME280;30041;48.300;16.352;2023-12-14T10:53:40;99242.38;;;22.09;nan
43312;BME280;30041;48.300;16.352;2023-12-14T10:56:09;99242.13;;;22.11;nan
43312;BME280;30041;48.300;16.352;2023-12-14T10:58:51;99237.53;;;22.11;nan
43312;BME280;30041;48.300;16.352;2023-12-14T11:01:19;99250.78;;;22.13;nan
43312;BME280;30041;48.300;16.352;2023-12-14T11:03:47;99249.47;;;22.15;nan
43312;BME280;30041;48.300;16.352;2023-12-14T11:06:27;99251.94;;;22.17;nan
43312;BME280;30041;48.300;16.352;2023-12-14T11:08:55;99245.97;;;22.15;nan
43312;BME280;30041;48.300;16.352;2023-12-14T11:11:22;99240.81;;;22.13;nan
43312;BME280;30041;48.300;16.352;2023-12-14T11:13:53;99247.34;;;22.17;nan
43312;BME280;30041;48.300;16.352;2023-12-14T11:16:22;99252.22;;;22.21;nan
43312;BME280;30041;48.300;16.352;2023-12-14T11:18:48;99261.25;;;22.26;nan
43312;BME280;30041;48.300;16.352;2023-12-14T11:21:24;99261.06;;;22.33;nan
43312;BME280;30041;48.300;16.352;2023-12-14T11:23:50;99263.09;;;22.26;nan
43312;BME280;30041;48.300;16.352;2023-12-14T11:26:21;99266.63;;;22.26;nan
43312;BME280;30041;48.300;16.352;2023-12-14T11:28:48;99274.28;;;22.34;nan
43312;BME280;30041;48.300;16.352;2023-12-14T11:31:14;99264.38;;;22.40;nan
43312;BME280;30041;48.300;16.352;2023-12-14T11:33:39;99264.94;;;22.42;nan
43312;BME280;30041;48.300;16.352;2023-12-14T11:36:05;99264.13;;;22.42;nan
43312;BME280;30041;48.300;16.352;2023-12-14T11:38:31;99260.66;;;22.46;nan
43312;BME280;30041;48.300;16.352;2023-12-14T11:40:58;99262.59;;;22.51;nan
43312;BME280;30041;48.300;16.352;2023-12-14T11:43:24;99263.28;;;22.41;nan
43312;BME280;30041;48.300;16.352;2023-12-14T11:45:49;99271.84;;;22.33;nan
43312;BME280;30041;48.300;16.352;2023-12-14T11:48:15;99266.69;;;22.31;nan
43312;BME280;30041;48.300;16.352;2023-12-14T11:50:42;99269.06;;;22.28;nan
43312;BME280;30041;48.300;16.352;2023-12-14T11:53:08;99269.38;;;22.31;nan
43312;BME280;30041;48.300;16.352;2023-12-14T11:55:36;99279.94;;;22.33;nan
43312;BME280;30041;48.300;16.352;2023-12-14T11:58:02;99274.28;;;22.34;nan
43312;BME280;30041;48.300;16.352;2023-12-14T12:00:30;99282.09;;;22.31;nan
43312;BME280;30041;48.300;16.352;2023-12-14T12:08:06;99288.34;;;22.36;nan
43312;BME280;30041;48.300;16.352;2023-12-14T12:10:32;99285.63;;;22.36;nan
43312;BME280;30041;48.300;16.352;2023-12-14T12:13:03;99283.75;;;22.37;nan
43312;BME280;30041;48.300;16.352;2023-12-14T12:15:29;99291.84;;;22.37;nan
43312;BME280;30041;48.300;16.352;2023-12-14T12:17:55;99292.22;;;22.46;nan
43312;BME280;30041;48.300;16.352;2023-12-14T12:22:45;99283.44;;;22.55;nan
43312;BME280;30041;48.300;16.352;2023-12-14T12:25:14;99289.97;;;22.59;nan
43312;BME280;30041;48.300;16.352;2023-12-14T12:27:40;99287.28;;;22.59;nan
43312;BME280;30041;48.300;16.352;2023-12-14T12:30:06;99297.00;;;22.61;nan
43312;BME280;30041;48.300;16.352;2023-12-14T12:32:32;99293.78;;;22.64;nan
43312;BME280;30041;48.300;16.352;2023-12-14T12:34:57;99306.22;;;22.65;nan
43312;BME280;30041;48.300;16.352;2023-12-14T12:37:23;99307.03;;;22.65;nan
43312;BME280;30041;48.300;16.352;2023-12-14T12:39:49;99312.59;;;22.53;nan
43312;BME280;30041;48.300;16.352;2023-12-14T12:42:14;99312.91;;;22.35;nan
43312;BME280;30041;48.300;16.352;2023-12-14T12:44:40;99310.56;;;22.44;nan
43312;BME280;30041;48.300;16.352;2023-12-14T12:47:05;99320.00;;;22.41;nan
43312;BME280;30041;48.300;16.352;2023-12-14T12:49:31;99312.44;;;22.43;nan
43312;BME280;30041;48.300;16.352;2023-12-14T12:51:56;99318.41;;;22.45;nan
43312;BME280;30041;48.300;16.352;2023-12-14T12:54:22;99314.22;;;22.54;nan
43312;BME280;30041;48.300;16.352;2023-12-14T12:56:48;99322.63;;;22.58;nan
43312;BME280;30041;48.300;16.352;2023-12-14T12:59:13;99321.25;;;22.55;nan
43312;BME280;30041;48.300;16.352;2023-12-14T13:01:39;99329.94;;;22.57;nan
43312;BME280;30041;48.300;16.352;2023-12-14T13:04:04;99331.22;;;22.55;nan
43312;BME280;30041;48.300;16.352;2023-12-14T13:06:42;99342.28;;;22.53;nan
43312;BME280;30041;48.300;16.352;2023-12-14T13:09:07;99346.03;;;22.52;nan
43312;BME280;30041;48.300;16.352;2023-12-14T13:11:33;99356.38;;;22.55;nan
43312;BME280;30041;48.300;16.352;2023-12-14T13:13:59;99358.22;;;22.55;nan